Resighini Rancheria, California
Current Conditions -  °F | °C
As of 4:10 AM on Sunday 21 Dec 2014 (Local Time) from KACV Reporting Station
Light Rain Light Rain  
Wind Chill: 57°   Ceiling: 300
Heat Index: 57°   Visibility: 5mi
Dew Point: 57°   Wind: 9mph
Humidity: 100%   Direction: 180°S
Pressure: 30.21"   Gusts: NA
Location:  41.4038°N, 123.781°W
Report Text: KACV 211210Z AUTO 18008KT 5SM -RA BR OVC003 14/14 A3021 RMK AO2 P0001 T01390139
Loading
Personal Weather Stations






























Interactive Weather Map New forecast layout! Learn more

10-Day Weather Forecast

Advertisements
Track Severe Weather on mobile